Ralston, Oklahoma
Current Conditions -  °F | °C
As of 11:53 AM on Saturday 25 Oct 2014 (Local Time) from KPNC Reporting Station
Clear Clear  
Wind Chill: 25°   Ceiling: Unl
Heat Index: 26°   Visibility: 10mi
Dew Point: 16°   Wind: 3mph
Humidity: 58%   Direction: NA
Pressure: 30.07"   Gusts: NA
Location:  36.5°N, 96.73°W
Report Text: KPNC 251653Z AUTO VRB03KT 10SM CLR 25/16 A3007 RMK AO2 SLP171 T02500161
Loading
Personal Weather Stations






























Interactive Weather Map
Tropical Storm Tracking
New forecast layout! Learn more

10-Day Weather Forecast

Advertisements
Track Severe Weather on mobile